createdAt,value
2022-09-09T00:01:03.282Z,2.53
2022-09-09T00:03:13.316Z,2.53
2022-09-09T00:05:20.470Z,3.10
2022-09-09T00:07:29.482Z,2.70
2022-09-09T00:09:39.065Z,3.30
2022-09-09T00:11:45.305Z,3.10
2022-09-09T00:13:50.131Z,3.00
2022-09-09T00:16:01.455Z,2.50
2022-09-09T00:18:15.343Z,2.50
2022-09-09T00:20:21.978Z,2.50
2022-09-09T00:22:26.351Z,2.90
2022-09-09T00:24:36.151Z,2.80
2022-09-09T00:26:44.116Z,2.50
2022-09-09T00:28:53.434Z,2.70
2022-09-09T00:30:58.297Z,2.97
2022-09-09T00:33:03.786Z,2.50
2022-09-09T00:35:19.017Z,3.03
2022-09-09T00:37:23.514Z,3.10
2022-09-09T00:39:32.064Z,3.10
2022-09-09T00:41:46.403Z,3.00
2022-09-09T00:44:00.484Z,2.90
2022-09-09T00:46:24.917Z,2.80
2022-09-09T00:48:33.858Z,3.00
2022-09-09T00:50:42.247Z,2.87
2022-09-09T00:52:49.789Z,2.77
2022-09-09T00:54:58.099Z,2.70
2022-09-09T00:57:11.494Z,3.00
2022-09-09T00:59:20.022Z,2.67
2022-09-09T01:01:24.573Z,2.80
2022-09-09T01:03:35.188Z,2.60
2022-09-09T01:05:43.298Z,2.70
2022-09-09T01:07:50.043Z,2.70
2022-09-09T01:09:57.553Z,2.60
2022-09-09T01:12:04.290Z,3.10
2022-09-09T01:14:21.499Z,2.80
2022-09-09T01:16:26.115Z,2.53
2022-09-09T01:18:31.400Z,2.80
2022-09-09T01:20:42.363Z,2.70
2022-09-09T01:22:55.705Z,2.70
2022-09-09T01:25:17.864Z,2.63
2022-09-09T01:27:50.361Z,2.70
2022-09-09T01:29:53.686Z,2.17
2022-09-09T01:31:59.541Z,2.53
2022-09-09T01:34:02.799Z,2.80
2022-09-09T01:36:09.138Z,3.03
2022-09-09T01:38:20.295Z,2.67
2022-09-09T01:40:26.240Z,3.10
2022-09-09T01:42:30.517Z,2.73
2022-09-09T01:44:36.164Z,2.50
2022-09-09T01:46:39.155Z,3.00
2022-09-09T01:48:47.698Z,2.73
2022-09-09T01:50:51.709Z,3.10
2022-09-09T01:52:58.544Z,3.07
2022-09-09T01:55:04.504Z,2.90
2022-09-09T01:57:18.460Z,3.27
2022-09-09T01:59:42.931Z,3.50
2022-09-09T02:01:57.893Z,3.10
2022-09-09T02:04:05.072Z,2.40
2022-09-09T02:06:16.185Z,3.53
2022-09-09T02:08:23.127Z,2.90
2022-09-09T02:10:35.342Z,3.30
2022-09-09T02:12:55.577Z,3.10
2022-09-09T02:15:06.010Z,3.20
2022-09-09T02:17:23.365Z,3.10
2022-09-09T02:19:35.019Z,3.00
2022-09-09T02:21:46.173Z,3.07
2022-09-09T02:23:50.385Z,3.10
2022-09-09T02:25:54.146Z,4.73
2022-09-09T02:28:00.261Z,3.10
2022-09-09T02:30:06.849Z,3.00
2022-09-09T02:32:23.922Z,2.50
2022-09-09T02:34:28.855Z,3.30
2022-09-09T02:36:36.196Z,3.00
2022-09-09T02:38:44.088Z,2.57
2022-09-09T02:40:50.172Z,3.20
2022-09-09T02:42:53.354Z,3.03
2022-09-09T02:44:57.778Z,3.87
2022-09-09T02:47:14.600Z,2.97
2022-09-09T02:49:23.623Z,2.80
2022-09-09T02:51:30.051Z,2.63
2022-09-09T02:53:41.299Z,2.63
2022-09-09T02:55:49.564Z,2.70
2022-09-09T02:57:57.034Z,2.93
2022-09-09T03:00:01.325Z,3.13
2022-09-09T03:02:07.398Z,2.93
2022-09-09T03:04:11.634Z,2.63
2022-09-09T03:06:15.852Z,2.70
2022-09-09T03:08:21.783Z,2.83
2022-09-09T03:10:24.874Z,2.60
2022-09-09T03:12:27.857Z,2.90
2022-09-09T03:14:31.408Z,3.10
2022-09-09T03:16:35.347Z,2.93
2022-09-09T03:18:40.125Z,2.70
2022-09-09T03:20:44.473Z,3.00
2022-09-09T03:22:47.787Z,2.80
2022-09-09T03:24:51.127Z,2.93
2022-09-09T03:26:54.342Z,2.93
2022-09-09T03:28:57.619Z,3.20
2022-09-09T03:31:02.059Z,3.63
2022-09-09T03:33:07.800Z,2.80
2022-09-09T03:35:12.188Z,2.37
2022-09-09T03:37:15.234Z,2.70
2022-09-09T03:39:18.311Z,2.60
2022-09-09T03:41:24.705Z,2.33
2022-09-09T03:43:28.605Z,2.37
2022-09-09T03:45:31.623Z,2.23
2022-09-09T03:47:34.725Z,2.00
2022-09-09T03:49:41.873Z,2.70
2022-09-09T03:51:46.218Z,2.53
2022-09-09T03:53:50.703Z,2.77
2022-09-09T03:55:55.458Z,2.90
2022-09-09T03:58:01.283Z,2.67
2022-09-09T04:00:06.744Z,2.80
2022-09-09T04:02:19.872Z,3.03
2022-09-09T04:04:23.290Z,3.00
2022-09-09T04:06:26.874Z,3.03
2022-09-09T04:08:32.730Z,3.50
2022-09-09T04:10:38.121Z,2.83
2022-09-09T04:12:42.244Z,3.30
2022-09-09T04:14:45.234Z,2.57
2022-09-09T04:16:48.435Z,2.90
2022-09-09T04:18:53.882Z,3.07
2022-09-09T04:20:58.191Z,3.03
2022-09-09T04:23:03.395Z,3.10
2022-09-09T04:25:08.865Z,3.40
2022-09-09T04:27:12.051Z,2.80
2022-09-09T04:29:15.293Z,3.27
2022-09-09T04:31:21.163Z,3.27
2022-09-09T04:33:27.413Z,3.20
2022-09-09T04:35:30.926Z,4.00
2022-09-09T04:37:34.029Z,3.73
2022-09-09T04:39:37.663Z,3.60
2022-09-09T04:41:42.148Z,3.87
2022-09-09T04:43:46.977Z,3.60
2022-09-09T04:45:53.559Z,4.20
2022-09-09T04:47:59.412Z,3.83
2022-09-09T04:50:02.630Z,3.50
2022-09-09T04:52:06.350Z,3.53
2022-09-09T04:54:12.651Z,3.10
2022-09-09T04:56:19.047Z,3.27
2022-09-09T04:58:28.649Z,3.20
2022-09-09T05:00:31.861Z,3.50
2022-09-09T05:02:34.979Z,3.00
2022-09-09T05:04:38.226Z,3.10
2022-09-09T05:06:43.189Z,3.43
2022-09-09T05:08:47.335Z,3.50
2022-09-09T05:10:53.173Z,3.17
2022-09-09T05:12:57.143Z,3.40
2022-09-09T05:15:04.785Z,3.47
2022-09-09T05:17:08.361Z,3.43
2022-09-09T05:19:14.013Z,3.20
2022-09-09T05:21:29.357Z,3.90
2022-09-09T05:23:32.806Z,4.07
2022-09-09T05:25:36.252Z,3.80
2022-09-09T05:27:39.947Z,3.13
2022-09-09T05:29:45.500Z,4.00
2022-09-09T05:31:51.029Z,3.73
2022-09-09T05:33:57.129Z,3.80
2022-09-09T05:36:02.487Z,4.30
2022-09-09T05:38:05.514Z,4.40
2022-09-09T05:40:09.299Z,3.77
2022-09-09T05:42:12.653Z,3.27
2022-09-09T05:44:15.739Z,4.27
2022-09-09T05:46:21.517Z,4.30
2022-09-09T05:48:30.090Z,4.10
2022-09-09T05:50:33.283Z,3.60
2022-09-09T05:52:36.314Z,3.90
2022-09-09T05:54:41.168Z,3.97
2022-09-09T05:56:48.766Z,3.90
2022-09-09T05:58:54.910Z,3.60
2022-09-09T06:01:06.248Z,3.33
2022-09-09T06:03:12.386Z,3.17
2022-09-09T06:05:17.516Z,3.60
2022-09-09T06:07:21.065Z,3.73
2022-09-09T06:09:24.168Z,3.43
2022-09-09T06:11:32.079Z,4.00
2022-09-09T06:13:36.197Z,4.17
2022-09-09T06:15:39.875Z,3.90
2022-09-09T06:17:44.709Z,4.30
2022-09-09T06:19:49.116Z,4.10
2022-09-09T06:21:53.547Z,4.50
2022-09-09T06:24:00.843Z,3.80
2022-09-09T06:26:07.023Z,4.10
2022-09-09T06:28:11.347Z,3.90
2022-09-09T06:30:15.000Z,3.83
2022-09-09T06:32:18.494Z,3.63
2022-09-09T06:34:22.584Z,3.20
2022-09-09T06:36:31.103Z,3.20
2022-09-09T06:38:36.243Z,3.23
2022-09-09T06:40:39.454Z,3.70
2022-09-09T06:42:42.742Z,3.50
2022-09-09T06:45:07.776Z,3.30
2022-09-09T06:47:18.625Z,3.10
2022-09-09T06:49:22.813Z,3.30
2022-09-09T06:51:26.795Z,3.40
2022-09-09T06:53:30.947Z,3.60
2022-09-09T06:55:36.469Z,3.40
2022-09-09T06:57:41.139Z,3.43
2022-09-09T06:59:51.976Z,3.10
2022-09-09T07:01:56.735Z,3.40
2022-09-09T07:04:01.626Z,3.33
2022-09-09T07:06:05.229Z,3.00
2022-09-09T07:08:08.607Z,3.40
2022-09-09T07:10:11.936Z,3.20
2022-09-09T07:12:16.402Z,3.10
2022-09-09T07:14:28.138Z,3.40
2022-09-09T07:16:37.912Z,3.30
2022-09-09T07:18:41.495Z,3.70
2022-09-09T07:20:44.729Z,3.90
2022-09-09T07:22:47.795Z,3.33
2022-09-09T07:24:51.409Z,3.50
2022-09-09T07:26:55.476Z,3.27
2022-09-09T07:28:59.906Z,3.30
2022-09-09T07:31:04.489Z,2.93
2022-09-09T07:33:08.385Z,3.07
2022-09-09T07:35:11.410Z,3.83
2022-09-09T07:37:14.550Z,3.23
2022-09-09T07:39:19.951Z,3.30
2022-09-09T07:41:28.576Z,3.30
2022-09-09T07:43:32.339Z,3.00
2022-09-09T07:45:37.459Z,3.20
2022-09-09T07:47:42.380Z,2.80
2022-09-09T07:49:47.183Z,2.50
2022-09-09T07:51:53.307Z,2.50
2022-09-09T07:53:58.485Z,2.47
2022-09-09T07:56:05.442Z,2.67
2022-09-09T07:58:08.872Z,2.47
2022-09-09T08:00:16.604Z,2.40
2022-09-09T08:02:29.014Z,2.90
2022-09-09T08:04:32.438Z,2.37
2022-09-09T08:06:38.161Z,2.20
2022-09-09T08:08:44.121Z,1.87
2022-09-09T08:10:47.277Z,2.27
2022-09-09T08:13:07.847Z,2.00
2022-09-09T08:15:13.838Z,1.97
2022-09-09T08:17:17.564Z,2.07
2022-09-09T08:19:22.264Z,1.70
2022-09-09T08:21:28.112Z,2.10
2022-09-09T08:23:32.918Z,1.90
2022-09-09T08:25:36.513Z,2.13
2022-09-09T08:27:39.957Z,1.90
2022-09-09T08:29:43.478Z,1.90
2022-09-09T08:31:48.029Z,2.30
2022-09-09T08:33:53.294Z,1.80
2022-09-09T08:35:59.752Z,1.70
2022-09-09T08:38:04.658Z,2.00
2022-09-09T08:40:11.861Z,1.77
2022-09-09T08:42:34.905Z,2.10
2022-09-09T08:45:13.142Z,1.50
2022-09-09T08:47:21.943Z,2.10
2022-09-09T08:49:48.009Z,1.63
2022-09-09T08:51:53.265Z,1.63
2022-09-09T08:53:59.791Z,1.30
2022-09-09T08:56:06.856Z,1.40
2022-09-09T08:58:24.317Z,1.40
2022-09-09T09:00:35.703Z,1.60
2022-09-09T09:02:46.895Z,1.80
2022-09-09T09:05:01.219Z,1.73
2022-09-09T09:07:14.958Z,1.47
2022-09-09T09:09:24.693Z,1.20
2022-09-09T09:11:27.941Z,1.43
2022-09-09T09:13:43.004Z,1.77
2022-09-09T09:15:50.719Z,1.30
2022-09-09T09:17:54.346Z,1.40
2022-09-09T09:19:57.631Z,1.50
2022-09-09T09:22:04.709Z,1.30
2022-09-09T09:24:21.232Z,1.40
2022-09-09T09:26:28.449Z,1.30
2022-09-09T09:28:33.741Z,2.00
2022-09-09T09:30:46.890Z,1.43
2022-09-09T09:32:54.230Z,1.20
2022-09-09T09:34:58.726Z,1.57
2022-09-09T09:37:03.746Z,1.70
2022-09-09T09:41:38.204Z,1.60
2022-09-09T09:43:43.415Z,1.30
2022-09-09T09:46:13.874Z,1.53
2022-09-09T09:48:15.943Z,1.53
2022-09-09T09:50:20.755Z,1.60
2022-09-09T09:52:27.556Z,1.60
2022-09-09T09:54:36.985Z,1.57
2022-09-09T09:56:40.595Z,1.80
2022-09-09T09:58:52.533Z,1.50
2022-09-09T10:01:00.895Z,1.53
2022-09-09T10:03:17.952Z,1.70
2022-09-09T10:05:26.908Z,1.60
2022-09-09T10:07:34.890Z,1.53
2022-09-09T10:09:40.985Z,1.80
2022-09-09T10:11:48.762Z,1.83
2022-09-09T10:13:58.764Z,1.80
2022-09-09T10:16:14.483Z,1.80
2022-09-09T10:18:47.617Z,1.87
2022-09-09T10:20:56.603Z,1.53
2022-09-09T10:23:08.622Z,1.67
2022-09-09T10:25:40.001Z,1.30
2022-09-09T10:27:55.500Z,3.50
2022-09-09T10:30:09.985Z,2.67
2022-09-09T10:32:29.331Z,1.40
2022-09-09T10:34:50.995Z,1.23
2022-09-09T10:36:54.143Z,1.00
2022-09-09T10:39:01.386Z,1.10
2022-09-09T10:41:24.714Z,0.93
2022-09-09T10:43:41.278Z,0.90
2022-09-09T10:45:52.838Z,0.87
2022-09-09T10:48:08.870Z,1.10
2022-09-09T10:53:11.168Z,0.90
2022-09-09T10:55:16.701Z,0.90
2022-09-09T10:57:29.365Z,1.20
2022-09-09T10:59:36.064Z,0.90
2022-09-09T11:01:45.942Z,1.20
2022-09-09T11:03:54.161Z,0.90
2022-09-09T11:05:59.812Z,1.00
2022-09-09T11:08:05.421Z,1.10
2022-09-09T11:10:18.884Z,1.23
2022-09-09T11:12:24.942Z,1.43
2022-09-09T11:14:36.867Z,1.20
2022-09-09T11:16:43.823Z,0.93
2022-09-09T11:18:48.735Z,1.47
2022-09-09T11:20:56.778Z,1.20
2022-09-09T11:23:03.667Z,1.20
2022-09-09T11:25:10.593Z,1.57
2022-09-09T11:27:17.167Z,1.27
2022-09-09T11:29:53.570Z,1.10
2022-09-09T11:32:07.511Z,1.17
2022-09-09T11:34:20.069Z,1.13
2022-09-09T11:36:46.908Z,1.10
2022-09-09T11:38:52.763Z,1.40
2022-09-09T11:40:58.905Z,1.50
2022-09-09T11:43:07.629Z,1.40
2022-09-09T11:45:13.939Z,1.40
2022-09-09T11:47:30.282Z,2.63
2022-09-09T11:49:44.408Z,2.53
2022-09-09T11:51:47.504Z,1.90
2022-09-09T11:53:52.310Z,2.47
2022-09-09T11:56:10.133Z,2.20
2022-09-09T11:58:19.076Z,2.30
2022-09-09T12:00:35.964Z,2.20
2022-09-09T12:02:50.643Z,2.40
2022-09-09T12:04:59.075Z,2.10
2022-09-09T12:07:05.531Z,1.90
2022-09-09T12:09:11.956Z,1.90
2022-09-09T12:11:26.487Z,1.77
2022-09-09T12:13:29.714Z,2.07
2022-09-09T12:15:32.843Z,2.10
2022-09-09T12:17:45.780Z,1.83
2022-09-09T12:19:49.145Z,2.50
2022-09-09T12:21:59.153Z,2.20
2022-09-09T12:24:06.553Z,1.90
2022-09-09T12:26:30.509Z,2.37
2022-09-09T12:28:51.680Z,2.30
2022-09-09T12:30:59.867Z,1.80
2022-09-09T12:33:10.996Z,1.60
2022-09-09T12:35:17.105Z,1.60
2022-09-09T12:37:29.667Z,1.83
2022-09-09T12:39:36.744Z,1.80
2022-09-09T12:41:39.900Z,1.60
2022-09-09T12:43:42.916Z,1.60
2022-09-09T12:45:46.369Z,1.70
2022-09-09T12:47:51.939Z,1.77
2022-09-09T12:49:57.464Z,1.50
2022-09-09T12:52:01.265Z,1.30
2022-09-09T12:54:05.761Z,1.70
2022-09-09T12:56:11.083Z,1.80
2022-09-09T12:58:15.955Z,1.47
2022-09-09T13:00:21.551Z,2.00
2022-09-09T13:02:25.856Z,1.30
2022-09-09T13:04:29.248Z,1.50
2022-09-09T13:06:35.145Z,2.10
2022-09-09T13:08:38.301Z,1.10
2022-09-09T13:10:53.650Z,1.43
2022-09-09T13:12:59.141Z,1.10
2022-09-09T13:15:03.317Z,0.90
2022-09-09T13:17:08.071Z,1.30
2022-09-09T13:19:18.026Z,0.87
2022-09-09T13:21:21.334Z,1.03
2022-09-09T13:23:28.674Z,0.80
2022-09-09T13:25:32.010Z,0.60
2022-09-09T13:27:39.615Z,0.90
2022-09-09T13:29:53.197Z,1.03
2022-09-09T13:31:56.803Z,1.00
2022-09-09T13:33:59.814Z,0.60
2022-09-09T13:36:05.444Z,1.07
2022-09-09T13:38:11.453Z,0.93
2022-09-09T13:40:20.108Z,1.07
2022-09-09T13:42:28.891Z,0.70
2022-09-09T13:44:33.930Z,1.47
2022-09-09T13:46:38.645Z,1.10
2022-09-09T13:48:41.999Z,1.10
2022-09-09T13:50:56.135Z,1.00
2022-09-09T13:53:00.933Z,2.07
2022-09-09T13:55:04.052Z,0.90
2022-09-09T13:57:18.034Z,0.70
2022-09-09T13:59:22.368Z,0.90
2022-09-09T14:01:29.394Z,0.77
2022-09-09T14:03:32.862Z,0.93
2022-09-09T14:05:36.056Z,0.97
2022-09-09T14:07:39.525Z,0.70
2022-09-09T14:09:42.896Z,0.83
2022-09-09T14:11:47.407Z,0.90
2022-09-09T14:13:51.927Z,0.80
2022-09-09T14:15:54.913Z,0.83
2022-09-09T14:18:00.092Z,0.80
2022-09-09T14:20:03.560Z,0.80
2022-09-09T14:22:06.704Z,0.93
2022-09-09T14:24:09.667Z,1.00
2022-09-09T14:26:12.695Z,1.00
2022-09-09T14:28:16.180Z,1.00
2022-09-09T14:30:20.656Z,0.70
2022-09-09T14:32:23.633Z,0.97
2022-09-09T14:34:26.669Z,1.13
2022-09-09T14:36:29.630Z,1.10
2022-09-09T14:38:34.580Z,1.03
2022-09-09T14:40:38.750Z,1.20
2022-09-09T14:42:42.160Z,1.10
2022-09-09T14:44:45.344Z,1.17
2022-09-09T14:46:51.178Z,0.90
2022-09-09T14:50:57.792Z,0.80
2022-09-09T14:53:00.792Z,0.93
2022-09-09T14:55:03.845Z,1.10
2022-09-09T14:57:06.912Z,0.83
2022-09-09T14:59:09.899Z,0.77
2022-09-09T15:01:14.699Z,0.90
2022-09-09T15:03:19.167Z,0.60
2022-09-09T15:05:22.405Z,1.00
2022-09-09T15:07:25.405Z,1.10
2022-09-09T15:09:28.409Z,1.00
2022-09-09T15:11:33.060Z,1.30
2022-09-09T15:13:38.170Z,1.00
2022-09-09T15:15:42.549Z,0.80
2022-09-09T15:17:45.565Z,0.93
2022-09-09T15:19:51.107Z,0.90
2022-09-09T15:21:54.159Z,0.87
2022-09-09T15:23:57.567Z,1.43
2022-09-09T15:26:00.609Z,1.10
2022-09-09T15:28:03.633Z,0.80
2022-09-09T15:30:07.929Z,0.90
2022-09-09T15:32:11.104Z,0.83
2022-09-09T15:34:14.698Z,0.90
2022-09-09T15:36:21.908Z,1.10
2022-09-09T15:38:26.340Z,0.80
2022-09-09T15:40:29.591Z,0.80
2022-09-09T15:42:32.621Z,0.90
2022-09-09T15:44:40.878Z,0.80
2022-09-09T15:46:45.503Z,1.37
2022-09-09T15:48:52.324Z,1.17
2022-09-09T15:51:10.972Z,0.90
2022-09-09T15:53:23.825Z,0.73
2022-09-09T15:55:26.836Z,0.70
2022-09-09T15:57:29.856Z,0.80
2022-09-09T15:59:34.412Z,0.80
2022-09-09T16:01:40.473Z,0.67
2022-09-09T16:03:45.681Z,0.80
2022-09-09T16:05:52.951Z,0.90
2022-09-09T16:07:55.992Z,0.80
2022-09-09T16:10:00.874Z,1.07
2022-09-09T16:12:08.773Z,1.00
2022-09-09T16:14:11.979Z,1.10
2022-09-09T16:16:16.752Z,1.13
2022-09-09T16:18:21.492Z,1.47
2022-09-09T16:20:26.614Z,1.00
2022-09-09T16:22:29.609Z,0.83
2022-09-09T16:24:33.370Z,0.70
2022-09-09T16:26:39.626Z,0.70
2022-09-09T16:28:43.159Z,1.40
2022-09-09T16:30:46.307Z,0.90
2022-09-09T16:32:50.234Z,0.90
2022-09-09T16:34:53.371Z,1.50
2022-09-09T16:36:57.143Z,2.20
2022-09-09T16:39:01.696Z,0.90
2022-09-09T16:41:06.730Z,0.80
2022-09-09T16:43:12.252Z,1.10
2022-09-09T16:45:15.736Z,1.07
2022-09-09T16:47:19.021Z,1.93
2022-09-09T16:49:22.417Z,1.00
2022-09-09T16:51:27.244Z,1.00
2022-09-09T16:53:30.374Z,1.10
2022-09-09T16:55:33.439Z,0.90
2022-09-09T16:57:36.594Z,1.07
2022-09-09T16:59:41.306Z,0.63
2022-09-09T17:01:45.666Z,0.60
2022-09-09T17:03:48.678Z,0.70
2022-09-09T17:05:51.886Z,0.80
2022-09-09T17:07:56.838Z,0.70
2022-09-09T17:09:59.834Z,2.17
2022-09-09T17:12:03.256Z,1.10
2022-09-09T17:14:07.540Z,0.70
2022-09-09T17:16:12.910Z,0.47
2022-09-09T17:18:17.191Z,0.50
2022-09-09T17:20:20.821Z,0.50
2022-09-09T17:22:24.113Z,0.50
2022-09-09T17:24:27.813Z,1.57
2022-09-09T17:26:34.028Z,0.77
2022-09-09T17:28:37.745Z,2.83
2022-09-09T17:30:41.520Z,0.83
2022-09-09T17:32:46.041Z,1.20
2022-09-09T17:34:49.173Z,0.60
2022-09-09T17:36:53.081Z,0.80
2022-09-09T17:38:56.441Z,1.47
2022-09-09T17:41:07.028Z,0.50
2022-09-09T17:43:10.089Z,0.50
2022-09-09T17:45:13.221Z,0.70
2022-09-09T17:47:16.301Z,0.53
2022-09-09T17:49:20.996Z,1.17
2022-09-09T17:51:28.251Z,1.40
2022-09-09T17:53:31.855Z,6.80
2022-09-09T17:55:35.086Z,2.03
2022-09-09T17:57:38.274Z,2.20
2022-09-09T17:59:42.019Z,5.30
2022-09-09T18:01:46.681Z,1.97
2022-09-09T18:03:51.634Z,1.00
2022-09-09T18:06:01.855Z,1.10
2022-09-09T18:08:04.925Z,0.80
2022-09-09T18:10:08.425Z,0.63
2022-09-09T18:12:11.529Z,0.70
2022-09-09T18:14:17.828Z,0.60
2022-09-09T18:16:22.363Z,0.53
2022-09-09T18:18:25.604Z,0.70
2022-09-09T18:20:28.612Z,0.70
2022-09-09T18:22:33.012Z,0.60
2022-09-09T18:24:37.084Z,0.57
2022-09-09T18:26:41.470Z,0.60
2022-09-09T18:28:48.372Z,0.83
2022-09-09T18:30:52.574Z,0.50
2022-09-09T18:32:56.050Z,0.57
2022-09-09T18:34:59.425Z,0.80
2022-09-09T18:37:02.545Z,0.70
2022-09-09T18:39:08.813Z,0.80
2022-09-09T18:41:16.075Z,0.60
2022-09-09T18:43:19.138Z,1.00
2022-09-09T18:45:22.639Z,1.97
2022-09-09T18:47:25.755Z,2.27
2022-09-09T18:49:33.257Z,1.73
2022-09-09T18:51:39.325Z,1.77
2022-09-09T18:53:42.416Z,1.00
2022-09-09T18:55:46.751Z,1.20
2022-09-09T18:57:50.699Z,1.20
2022-09-09T18:59:55.360Z,1.00
2022-09-09T19:01:58.525Z,1.10
2022-09-09T19:04:01.666Z,1.17
2022-09-09T19:06:07.740Z,1.10
2022-09-09T19:08:10.861Z,0.90
2022-09-09T19:10:14.792Z,0.93
2022-09-09T19:12:19.550Z,1.20
2022-09-09T19:14:22.965Z,1.23
2022-09-09T19:16:29.279Z,1.20
2022-09-09T19:18:32.450Z,1.07
2022-09-09T19:20:35.635Z,0.80
2022-09-09T19:22:38.742Z,0.97
2022-09-09T19:24:42.203Z,1.00
2022-09-09T19:26:46.785Z,1.17
2022-09-09T19:28:51.853Z,2.27
2022-09-09T19:30:56.672Z,4.37
2022-09-09T19:33:00.985Z,2.50
2022-09-09T19:35:04.457Z,1.30
2022-09-09T19:37:07.789Z,0.90
2022-09-09T19:39:11.589Z,0.87
2022-09-09T19:41:16.212Z,0.83
2022-09-09T19:43:19.238Z,1.10
2022-09-09T19:45:23.642Z,1.00
2022-09-09T19:47:26.767Z,1.50
2022-09-09T19:49:31.152Z,1.70
2022-09-09T19:51:35.665Z,1.50
2022-09-09T19:53:40.399Z,1.50
2022-09-09T19:55:43.417Z,1.53
2022-09-09T19:57:46.532Z,1.30
2022-09-09T19:59:49.743Z,0.93
2022-09-09T20:01:57.059Z,1.20
2022-09-09T20:04:02.954Z,1.27
2022-09-09T20:06:06.614Z,4.23
2022-09-09T20:08:09.767Z,2.20
2022-09-09T20:10:12.900Z,1.40
2022-09-09T20:12:16.865Z,1.57
2022-09-09T20:14:20.321Z,1.90
2022-09-09T20:16:25.107Z,1.50
2022-09-09T20:18:32.303Z,1.37
2022-09-09T20:20:35.759Z,1.50
2022-09-09T20:22:38.748Z,1.50
2022-09-09T20:24:44.319Z,1.20
2022-09-09T20:26:48.333Z,1.10
2022-09-09T20:28:53.091Z,1.40
2022-09-09T20:30:56.457Z,1.50
2022-09-09T20:33:00.136Z,1.00
2022-09-09T20:35:05.026Z,1.40
2022-09-09T20:37:07.982Z,1.30
2022-09-09T20:39:13.169Z,1.67
2022-09-09T20:41:18.697Z,1.37
2022-09-09T20:43:21.760Z,1.50
2022-09-09T20:45:24.872Z,1.37
2022-09-09T20:47:30.870Z,1.47
2022-09-09T20:49:35.212Z,1.60
2022-09-09T20:51:39.960Z,2.30
2022-09-09T20:53:43.173Z,1.40
2022-09-09T20:55:50.686Z,1.50
2022-09-09T20:57:56.683Z,1.80
2022-09-09T21:00:00.139Z,1.60
2022-09-09T21:02:03.616Z,1.43
2022-09-09T21:04:07.173Z,1.30
2022-09-09T21:06:10.401Z,1.80
2022-09-09T21:08:16.691Z,1.50
2022-09-09T21:10:21.108Z,1.47
2022-09-09T21:12:24.547Z,1.70
2022-09-09T21:14:28.310Z,1.57
2022-09-09T21:16:31.681Z,1.33
2022-09-09T21:18:35.333Z,1.87
2022-09-09T21:20:38.587Z,1.50
2022-09-09T21:22:41.683Z,1.70
2022-09-09T21:24:46.739Z,2.20
2022-09-09T21:26:50.366Z,1.80
2022-09-09T21:28:53.674Z,2.70
2022-09-09T21:30:58.523Z,1.67
2022-09-09T21:33:05.138Z,1.70
2022-09-09T21:35:09.189Z,2.30
2022-09-09T21:37:12.375Z,1.90
2022-09-09T21:39:15.855Z,1.70
2022-09-09T21:41:20.547Z,1.80
2022-09-09T21:43:24.665Z,1.90
2022-09-09T21:45:28.115Z,1.70
2022-09-09T21:47:31.204Z,1.73
2022-09-09T21:49:34.192Z,2.00
2022-09-09T21:51:37.273Z,1.93
2022-09-09T21:53:40.290Z,1.97
2022-09-09T21:55:47.690Z,1.70
2022-09-09T21:57:52.326Z,2.10
2022-09-09T21:59:55.465Z,1.83
2022-09-09T22:01:59.339Z,1.80
2022-09-09T22:04:22.983Z,2.07
2022-09-09T22:06:26.152Z,1.80
2022-09-09T22:08:30.737Z,1.83
2022-09-09T22:10:33.821Z,1.70
2022-09-09T22:12:37.142Z,1.90
2022-09-09T22:14:41.621Z,1.93
2022-09-09T22:16:44.746Z,1.70
2022-09-09T22:18:51.921Z,1.90
2022-09-09T22:20:55.303Z,2.40
2022-09-09T22:22:58.325Z,2.47
2022-09-09T22:25:01.500Z,1.90
2022-09-09T22:27:04.893Z,2.03
2022-09-09T22:29:08.036Z,2.00
2022-09-09T22:31:12.443Z,1.80
2022-09-09T22:33:15.618Z,1.90
2022-09-09T22:35:18.715Z,1.70
2022-09-09T22:37:22.633Z,1.90
2022-09-09T22:39:25.963Z,2.10
2022-09-09T22:41:29.999Z,2.40
2022-09-09T22:43:33.922Z,2.27
2022-09-09T22:45:37.308Z,2.00
2022-09-09T22:47:42.379Z,2.30
2022-09-09T22:49:46.399Z,1.93
2022-09-09T22:51:50.708Z,2.60
2022-09-09T22:53:54.373Z,2.60
2022-09-09T22:55:59.528Z,2.43
2022-09-09T22:58:02.901Z,1.93
2022-09-09T23:00:09.819Z,2.00
2022-09-09T23:02:13.034Z,2.00
2022-09-09T23:04:18.440Z,2.00
2022-09-09T23:06:23.225Z,2.33
2022-09-09T23:08:27.544Z,1.90
2022-09-09T23:10:32.121Z,2.07
2022-09-09T23:12:35.146Z,2.20
2022-09-09T23:14:38.127Z,2.57
2022-09-09T23:16:44.264Z,2.17
2022-09-09T23:18:48.459Z,2.53
2022-09-09T23:21:00.359Z,2.70
2022-09-09T23:23:03.495Z,2.10
2022-09-09T23:25:07.653Z,1.90
2022-09-09T23:27:10.712Z,2.07
2022-09-09T23:29:14.784Z,2.03
2022-09-09T23:31:20.075Z,2.43
2022-09-09T23:33:23.193Z,1.90
2022-09-09T23:35:26.579Z,1.80
2022-09-09T23:37:31.443Z,1.87
2022-09-09T23:39:34.415Z,2.27
2022-09-09T23:41:40.160Z,2.20
2022-09-09T23:43:45.066Z,1.90
2022-09-09T23:45:50.318Z,1.77
2022-09-09T23:47:55.717Z,2.00
2022-09-09T23:49:59.189Z,2.07
2022-09-09T23:52:04.278Z,2.00
2022-09-09T23:54:10.037Z,1.90
2022-09-09T23:56:14.364Z,2.00
2022-09-09T23:58:17.340Z,2.17
